Time;durP1;ratioP1;P1;durP2;ratioP2;P2;SDS_P1;SDS_P2;PMS_P1;PMS_P2;Temp;Humidity;BMP_temperature;BMP_pressure;BME280_temperature;BME280_humidity;BME280_pressure;Samples;Min_cycle;Max_cycle;Signal;HPM_P1;HPM_P2
2023/02/03 00:00:03;;;;;;;;;;;;;;;8.28;100.00;102349.78;5012598;28;19925;-67
2023/02/03 00:02:29;;;;;;;;;;;;;;;8.28;100.00;102349.78;5004207;28;19936;-68
2023/02/03 00:04:55;;;;;;;;;;;;;;;8.29;100.00;102346.19;5015770;28;20700;-67
2023/02/03 00:07:22;;;;;;;;;;;;;;;8.32;100.00;102346.88;5012543;28;19925;-69
2023/02/03 00:09:48;;;;;;;;;;;;;;;8.36;100.00;102355.34;5007859;28;19941;-68
2023/02/03 00:12:15;;;;;;;;;;;;;;;8.31;100.00;102346.94;5005046;28;19929;-66
2023/02/03 00:14:41;;;;;;;;;;;;;;;8.35;100.00;102358.06;5008647;28;20428;-65
2023/02/03 00:17:07;;;;;;;;;;;;;;;8.37;100.00;102370.13;5016131;28;19925;-65
2023/02/03 00:19:33;;;;;;;;;;;;;;;8.38;100.00;102384.03;5015552;28;19925;-64
2023/02/03 00:22:00;;;;;;;;;;;;;;;8.34;100.00;102382.53;5021085;28;19983;-66
2023/02/03 00:24:27;;;;;;;;;;;;;;;8.37;100.00;102379.72;5018769;28;19956;-67
2023/02/03 00:26:53;;;;;;;;;;;;;;;8.36;100.00;102380.69;5006940;28;19929;-67
2023/02/03 00:29:23;;;;;;;;;;;;;;;8.38;100.00;102368.34;5012882;28;20221;-68
2023/02/03 00:31:50;;;;;;;;;;;;;;;8.40;100.00;102371.72;5001864;28;19933;-67
2023/02/03 00:34:17;;;;;;;;;;;;;;;8.37;100.00;102384.97;5019798;28;19929;-66
2023/02/03 00:36:45;;;;;;;;;;;;;;;8.34;100.00;102380.75;5010120;28;19935;-66
2023/02/03 00:39:11;;;;;;;;;;;;;;;8.38;100.00;102391.88;5017796;28;20759;-66
2023/02/03 00:41:38;;;;;;;;;;;;;;;8.37;100.00;102398.03;5019067;28;19929;-67
2023/02/03 00:44:04;;;;;;;;;;;;;;;8.39;100.00;102402.25;5003900;28;19925;-68
2023/02/03 00:46:30;;;;;;;;;;;;;;;8.40;100.00;102400.47;5015371;28;20029;-66
2023/02/03 00:48:56;;;;;;;;;;;;;;;8.38;100.00;102400.56;5011703;28;19979;-66
2023/02/03 00:51:23;;;;;;;;;;;;;;;8.38;100.00;102391.88;5023092;28;19929;-68
2023/02/03 00:53:49;;;;;;;;;;;;;;;8.40;100.00;102392.63;5004662;28;19977;-67
2023/02/03 00:56:15;;;;;;;;;;;;;;;8.38;100.00;102399.72;5018436;28;19929;-67
2023/02/03 00:58:42;;;;;;;;;;;;;;;8.37;100.00;102396.28;5016800;28;19936;-67
2023/02/03 01:01:08;;;;;;;;;;;;;;;8.38;100.00;102397.09;5017192;28;19975;-68
2023/02/03 01:03:35;;;;;;;;;;;;;;;8.38;100.00;102389.25;5010824;28;19929;-68
2023/02/03 01:06:18;;;;;;;;;;;;;;;8.37;100.00;102388.44;5009186;28;19948;-68
2023/02/03 01:08:45;;;;;;;;;;;;;;;8.39;100.00;102396.16;5008524;28;19925;-68
2023/02/03 01:11:13;;;;;;;;;;;;;;;8.42;100.00;102390.78;4996055;28;19929;-68
2023/02/03 01:13:40;;;;;;;;;;;;;;;8.44;100.00;102386.31;5020424;28;19928;-68
2023/02/03 01:16:07;;;;;;;;;;;;;;;8.42;100.00;102386.38;5020331;28;19936;-69
2023/02/03 01:18:34;;;;;;;;;;;;;;;8.46;100.00;102381.81;5018055;28;20023;-68
2023/02/03 01:21:04;;;;;;;;;;;;;;;8.48;100.00;102383.41;5016298;28;19925;-71
2023/02/03 01:23:30;;;;;;;;;;;;;;;8.49;100.00;102389.50;5008821;28;20416;-69
2023/02/03 01:26:00;;;;;;;;;;;;;;;8.46;100.00;102366.13;5017075;28;19933;-68
2023/02/03 01:28:27;;;;;;;;;;;;;;;8.46;100.00;102371.34;5019128;28;20292;-69
2023/02/03 01:30:53;;;;;;;;;;;;;;;8.44;100.00;102365.38;5024596;28;19979;-68
2023/02/03 01:33:19;;;;;;;;;;;;;;;8.46;100.00;102364.34;5001722;28;20004;-68
2023/02/03 01:35:46;;;;;;;;;;;;;;;8.46;100.00;102355.66;5018718;28;19944;-68
2023/02/03 01:38:12;;;;;;;;;;;;;;;8.46;100.00;102353.06;5013625;28;19933;-68
2023/02/03 01:40:43;;;;;;;;;;;;;;;8.51;100.00;102358.84;5002733;28;20349;-68
2023/02/03 01:43:09;;;;;;;;;;;;;;;8.52;100.00;102352.66;5023502;28;20258;-68
2023/02/03 01:45:36;;;;;;;;;;;;;;;8.46;100.00;102355.66;5011829;28;20374;-68
2023/02/03 01:48:03;;;;;;;;;;;;;;;8.49;100.00;102334.56;5013507;28;19931;-69
2023/02/03 01:50:31;;;;;;;;;;;;;;;8.48;100.00;102327.66;5018665;28;19936;-68
2023/02/03 01:53:02;;;;;;;;;;;;;;;8.47;100.00;102326.81;4995702;28;19930;-68
2023/02/03 01:55:34;;;;;;;;;;;;;;;8.48;100.00;102327.66;5018949;28;19929;-68
2023/02/03 01:58:03;;;;;;;;;;;;;;;8.49;100.00;102331.94;5017526;28;20385;-68
2023/02/03 02:00:30;;;;;;;;;;;;;;;8.51;100.00;102330.91;5022954;28;19925;-68
2023/02/03 02:02:58;;;;;;;;;;;;;;;8.51;100.00;102343.16;5015078;28;19929;-69
2023/02/03 02:05:28;;;;;;;;;;;;;;;8.49;100.00;102335.41;5014246;28;20852;-69
2023/02/03 02:07:56;;;;;;;;;;;;;;;8.51;100.00;102335.31;5010761;28;19932;-68
2023/02/03 02:10:22;;;;;;;;;;;;;;;8.54;100.00;102340.34;5023026;28;19925;-68
2023/02/03 02:12:49;;;;;;;;;;;;;;;8.50;100.00;102325.78;5013288;28;19938;-69
2023/02/03 02:15:16;;;;;;;;;;;;;;;8.54;100.00;102319.41;5012680;28;20298;-68
2023/02/03 02:18:04;;;;;;;;;;;;;;;8.51;100.00;102303.94;5022407;28;19928;-68
2023/02/03 02:20:30;;;;;;;;;;;;;;;8.50;100.00;102300.44;5005323;28;20305;-68
2023/02/03 02:23:10;;;;;;;;;;;;;;;8.47;100.00;102305.06;5011591;28;19971;-69
2023/02/03 02:25:53;;;;;;;;;;;;;;;8.46;100.00;102308.59;5014476;28;20406;-68
2023/02/03 02:28:41;;;;;;;;;;;;;;;8.45;100.00;102312.16;5013142;28;20528;-68
2023/02/03 02:31:08;;;;;;;;;;;;;;;8.46;100.00;102305.97;5016869;28;20212;-68
2023/02/03 02:33:44;;;;;;;;;;;;;;;8.47;100.00;102308.50;5018236;28;19956;-68
2023/02/03 02:36:25;;;;;;;;;;;;;;;8.45;100.00;102317.38;5019583;28;20488;-68
2023/02/03 02:39:12;;;;;;;;;;;;;;;8.47;100.00;102328.59;5017504;28;19940;-69
2023/02/03 02:42:01;;;;;;;;;;;;;;;8.42;100.00;102336.72;5028607;28;19971;-68
2023/02/03 02:44:38;;;;;;;;;;;;;;;8.44;100.00;102336.63;5000135;28;19930;-68
2023/02/03 02:47:10;;;;;;;;;;;;;;;8.47;100.00;102341.66;5010039;28;20008;-68
2023/02/03 02:49:45;;;;;;;;;;;;;;;8.46;100.00;102345.22;5013630;28;20404;-68
2023/02/03 02:52:13;;;;;;;;;;;;;;;8.49;100.00;102331.94;5027578;28;19943;-69
2023/02/03 02:54:43;;;;;;;;;;;;;;;8.46;100.00;102316.44;5011406;28;20476;-68
2023/02/03 02:57:11;;;;;;;;;;;;;;;8.48;100.00;102314.56;5016942;28;19929;-68
2023/02/03 02:59:38;;;;;;;;;;;;;;;8.46;100.00;102313.81;5019032;28;19991;-69
2023/02/03 03:02:04;;;;;;;;;;;;;;;8.50;100.00;102290.00;5019101;28;19926;-68
2023/02/03 03:04:31;;;;;;;;;;;;;;;8.49;100.00;102280.47;5020420;28;20120;-68
2023/02/03 03:07:04;;;;;;;;;;;;;;;8.50;100.00;102282.16;5015944;28;20405;-68
2023/02/03 03:09:35;;;;;;;;;;;;;;;8.50;100.00;102266.44;5026815;28;20658;-68
2023/02/03 03:12:10;;;;;;;;;;;;;;;8.48;100.00;102277.97;5020592;28;20271;-69
2023/02/03 03:14:40;;;;;;;;;;;;;;;8.50;100.00;102284.75;5026379;28;19944;-68
2023/02/03 03:17:09;;;;;;;;;;;;;;;8.49;100.00;102285.72;5012953;28;20132;-69
2023/02/03 03:19:41;;;;;;;;;;;;;;;8.54;100.00;102285.41;5031397;28;19925;-68
2023/02/03 03:22:10;;;;;;;;;;;;;;;8.54;100.00;102293.25;5025884;28;19925;-68
2023/02/03 03:24:42;;;;;;;;;;;;;;;8.55;100.00;102291.50;5018845;28;19929;-68
2023/02/03 03:27:21;;;;;;;;;;;;;;;8.49;100.00;102297.97;5026283;28;19960;-68
2023/02/03 03:29:51;;;;;;;;;;;;;;;8.50;100.00;102303.06;5015870;28;19929;-68
2023/02/03 03:32:17;;;;;;;;;;;;;;;8.49;100.00;102303.19;5020303;28;19929;-68
2023/02/03 03:34:44;;;;;;;;;;;;;;;8.50;100.00;102302.22;5019815;28;20447;-68
2023/02/03 03:37:17;;;;;;;;;;;;;;;8.52;100.00;102298.56;5021229;28;19975;-68
2023/02/03 03:39:47;;;;;;;;;;;;;;;8.52;100.00;102300.34;5014964;28;19975;-69
2023/02/03 03:42:20;;;;;;;;;;;;;;;8.52;100.00;102308.22;5025567;28;19925;-68
2023/02/03 03:44:56;;;;;;;;;;;;;;;8.56;100.00;102308.84;5022239;28;19932;-68
2023/02/03 03:47:26;;;;;;;;;;;;;;;8.52;100.00;102311.66;5017534;28;20458;-68
2023/02/03 03:49:54;;;;;;;;;;;;;;;8.55;100.00;102301.97;5026478;28;19933;-67
2023/02/03 03:52:26;;;;;;;;;;;;;;;8.52;100.00;102300.34;5021416;28;20338;-68
2023/02/03 03:54:53;;;;;;;;;;;;;;;8.56;100.00;102306.25;5016564;28;19933;-68
2023/02/03 03:57:25;;;;;;;;;;;;;;;8.54;100.00;102316.78;5016298;28;19925;-69
2023/02/03 03:59:52;;;;;;;;;;;;;;;8.58;100.00;102305.19;5015589;28;19925;-70
2023/02/03 04:02:19;;;;;;;;;;;;;;;8.56;100.00;102314.91;5023112;28;19933;-68
2023/02/03 04:04:47;;;;;;;;;;;;;;;8.61;100.00;102317.25;5016402;28;19932;-68
2023/02/03 04:07:13;;;;;;;;;;;;;;;8.64;100.00;102317.06;5026812;28;20380;-68
2023/02/03 04:09:41;;;;;;;;;;;;;;;8.63;100.00;102326.69;5002189;28;20416;-68
2023/02/03 04:12:13;;;;;;;;;;;;;;;8.64;100.00;102324.91;5022119;28;19929;-68
2023/02/03 04:14:40;;;;;;;;;;;;;;;8.59;100.00;102327.81;5008243;28;19933;-68
2023/02/03 04:17:07;;;;;;;;;;;;;;;8.61;100.00;102331.19;5031406;28;19929;-69
2023/02/03 04:19:33;;;;;;;;;;;;;;;8.68;100.00;102322.00;5026175;28;19956;-68
2023/02/03 04:22:00;;;;;;;;;;;;;;;8.64;100.00;102311.81;5019328;28;19929;-69
2023/02/03 04:24:26;;;;;;;;;;;;;;;8.69;100.00;102317.63;5021283;28;19929;-69
2023/02/03 04:26:52;;;;;;;;;;;;;;;8.66;100.00;102304.72;5015731;28;19940;-69
2023/02/03 04:29:19;;;;;;;;;;;;;;;8.71;100.00;102307.88;5023938;28;19929;-68
2023/02/03 04:31:45;;;;;;;;;;;;;;;8.70;100.00;102314.03;5019563;28;19925;-68
2023/02/03 04:34:11;;;;;;;;;;;;;;;8.72;100.00;102330.47;5025289;28;20023;-68
2023/02/03 04:36:37;;;;;;;;;;;;;;;8.71;100.00;102310.50;5026300;28;19936;-69
2023/02/03 04:39:04;;;;;;;;;;;;;;;8.71;100.00;102306.09;5009093;28;20361;-69
2023/02/03 04:41:30;;;;;;;;;;;;;;;8.73;100.00;102313.03;5003878;28;19925;-68
2023/02/03 04:43:56;;;;;;;;;;;;;;;8.71;100.00;102313.94;5017661;28;20388;-69
2023/02/03 04:46:23;;;;;;;;;;;;;;;8.74;100.00;102291.16;5024686;28;19983;-69
2023/02/03 04:48:49;;;;;;;;;;;;;;;8.76;100.00;102297.97;5019241;28;19929;-68
2023/02/03 04:51:15;;;;;;;;;;;;;;;8.76;100.00;102303.22;5021981;28;19933;-69
2023/02/03 04:53:42;;;;;;;;;;;;;;;8.76;100.00;102291.88;5016448;28;19935;-69
2023/02/03 04:56:08;;;;;;;;;;;;;;;8.79;100.00;102283.84;4999959;28;19928;-69
2023/02/03 04:58:35;;;;;;;;;;;;;;;8.77;100.00;102280.50;5025204;28;19925;-69
2023/02/03 05:01:06;;;;;;;;;;;;;;;8.74;100.00;102289.38;5019028;28;19925;-68
2023/02/03 05:03:33;;;;;;;;;;;;;;;8.75;100.00;102287.59;5025768;28;20381;-68
2023/02/03 05:06:02;;;;;;;;;;;;;;;8.75;100.00;102296.28;5014899;28;19928;-69
2023/02/03 05:08:29;;;;;;;;;;;;;;;8.80;100.00;102301.22;5017655;28;19936;-68
2023/02/03 05:10:55;;;;;;;;;;;;;;;8.78;100.00;102296.09;5001175;28;19929;-68
2023/02/03 05:13:21;;;;;;;;;;;;;;;8.77;100.00;102297.03;4982176;28;20009;-68
2023/02/03 05:15:48;;;;;;;;;;;;;;;8.81;100.00;102292.44;5025321;28;19935;-68
2023/02/03 05:18:14;;;;;;;;;;;;;;;8.80;100.00;102289.00;5019641;28;19925;-68
2023/02/03 05:20:40;;;;;;;;;;;;;;;8.84;100.00;102281.75;5018445;28;19929;-69
2023/02/03 05:23:07;;;;;;;;;;;;;;;8.80;100.00;102289.00;5015014;28;19975;-69
2023/02/03 05:25:33;;;;;;;;;;;;;;;8.81;100.00;102280.19;5023538;28;20019;-69
2023/02/03 05:27:59;;;;;;;;;;;;;;;8.82;100.00;102287.13;5025090;28;19929;-68
2023/02/03 05:30:26;;;;;;;;;;;;;;;8.85;100.00;102299.16;5014124;28;19969;-68
2023/02/03 05:32:52;;;;;;;;;;;;;;;8.84;100.00;102305.31;5023034;28;20590;-68
2023/02/03 05:35:19;;;;;;;;;;;;;;;8.87;100.00;102305.13;5012596;28;20387;-69
2023/02/03 05:37:45;;;;;;;;;;;;;;;8.86;100.00;102298.19;5018694;28;20447;-68
2023/02/03 05:42:57;;;;;;;;;;;;;;;8.84;100.00;102294.84;5017613;28;19929;-68
2023/02/03 05:45:23;;;;;;;;;;;;;;;8.79;100.00;102287.31;5010292;28;19937;-69
2023/02/03 05:47:50;;;;;;;;;;;;;;;8.83;100.00;102291.41;5020098;28;20011;-68
2023/02/03 05:50:16;;;;;;;;;;;;;;;8.82;100.00;102313.28;5017965;28;19952;-69
2023/02/03 05:52:42;;;;;;;;;;;;;;;8.82;100.00;102309.81;5015121;28;19987;-68
2023/02/03 05:55:09;;;;;;;;;;;;;;;8.82;100.00;102300.19;5022719;28;19925;-69
2023/02/03 05:57:35;;;;;;;;;;;;;;;8.83;100.00;102293.19;5007256;28;19925;-69
2023/02/03 06:00:01;;;;;;;;;;;;;;;8.86;100.00;102300.81;5023645;28;19997;-68
2023/02/03 06:02:28;;;;;;;;;;;;;;;8.84;100.00;102282.63;5010024;28;19929;-69
2023/02/03 06:04:54;;;;;;;;;;;;;;;8.83;100.00;102280.09;5016881;28;19933;-68
2023/02/03 06:07:20;;;;;;;;;;;;;;;8.80;100.00;102294.22;5018943;28;19929;-69
2023/02/03 06:09:47;;;;;;;;;;;;;;;8.79;100.00;102291.72;5001271;28;20332;-69
2023/02/03 06:12:14;;;;;;;;;;;;;;;8.79;100.00;102296.94;5024590;28;20429;-68
2023/02/03 06:14:40;;;;;;;;;;;;;;;8.81;100.00;102295.06;5012525;28;19930;-69
2023/02/03 06:17:07;;;;;;;;;;;;;;;8.82;100.00;102289.72;5019054;28;19983;-68
2023/02/03 06:19:33;;;;;;;;;;;;;;;8.78;100.00;102298.72;5015855;28;19929;-69
2023/02/03 06:21:59;;;;;;;;;;;;;;;8.76;100.00;102302.34;5027722;28;20003;-68
2023/02/03 06:24:26;;;;;;;;;;;;;;;8.79;100.00;102303.00;5027942;28;19945;-69
2023/02/03 06:26:52;;;;;;;;;;;;;;;8.80;100.00;102303.84;5021657;28;19929;-69
2023/02/03 06:29:18;;;;;;;;;;;;;;;8.75;100.00;102298.06;5006847;28;19979;-68
2023/02/03 06:31:45;;;;;;;;;;;;;;;8.76;100.00;102304.97;5015202;28;20400;-68
2023/02/03 06:34:11;;;;;;;;;;;;;;;8.76;100.00;102297.97;5026341;28;19935;-68
2023/02/03 06:36:37;;;;;;;;;;;;;;;8.70;100.00;102307.06;5023152;28;19929;-69
2023/02/03 06:39:04;;;;;;;;;;;;;;;8.71;100.00;102307.88;5027830;28;20322;-68
2023/02/03 06:41:31;;;;;;;;;;;;;;;8.69;100.00;102307.97;4998876;28;19932;-68
2023/02/03 06:43:58;;;;;;;;;;;;;;;8.68;100.00;102314.16;5017470;28;19929;-68
2023/02/03 06:46:28;;;;;;;;;;;;;;;8.74;100.00;102319.94;5020281;28;19940;-68
2023/02/03 06:48:55;;;;;;;;;;;;;;;8.73;100.00;102333.97;5019480;28;19933;-69
2023/02/03 06:51:23;;;;;;;;;;;;;;;8.75;100.00;102345.16;5027333;28;19925;-68
2023/02/03 06:53:50;;;;;;;;;;;;;;;8.68;100.00;102326.38;5018453;28;20032;-68
2023/02/03 06:56:16;;;;;;;;;;;;;;;8.73;100.00;102326.13;5018193;28;19925;-68
2023/02/03 06:58:43;;;;;;;;;;;;;;;8.74;100.00;102328.59;5019600;28;19932;-69
2023/02/03 07:01:09;;;;;;;;;;;;;;;8.66;100.00;102326.50;5019593;28;20345;-68
2023/02/03 07:03:36;;;;;;;;;;;;;;;8.67;100.00;102332.56;5027082;28;19925;-68
2023/02/03 07:06:02;;;;;;;;;;;;;;;8.65;100.00;102343.13;5018796;28;20267;-68
2023/02/03 07:08:28;;;;;;;;;;;;;;;8.66;100.00;102347.44;5021957;28;19933;-69
2023/02/03 07:10:55;;;;;;;;;;;;;;;8.68;100.00;102340.31;5016235;28;19940;-69
2023/02/03 07:13:21;;;;;;;;;;;;;;;8.71;100.00;102342.72;5021137;28;19936;-69
2023/02/03 07:15:47;;;;;;;;;;;;;;;8.69;100.00;102335.94;5021303;28;19929;-69
2023/02/03 07:18:15;;;;;;;;;;;;;;;8.69;100.00;102343.78;5017124;28;19929;-68
2023/02/03 07:21:03;;;;;;;;;;;;;;;8.70;100.00;102350.66;5022342;28;20432;-68
2023/02/03 07:23:29;;;;;;;;;;;;;;;8.68;100.00;102339.47;5009604;28;19940;-68
2023/02/03 07:25:58;;;;;;;;;;;;;;;8.65;100.00;102352.75;5019081;28;19936;-68
2023/02/03 07:28:24;;;;;;;;;;;;;;;8.68;100.00;102352.53;5019403;28;19937;-69
2023/02/03 07:30:50;;;;;;;;;;;;;;;8.66;100.00;102347.44;5023860;28;19929;-68
2023/02/03 07:33:17;;;;;;;;;;;;;;;8.68;100.00;102353.41;5021727;28;19925;-68
2023/02/03 07:35:43;;;;;;;;;;;;;;;8.73;100.00;102345.25;5018188;28;19929;-68
2023/02/03 07:38:11;;;;;;;;;;;;;;;8.75;100.00;102346.00;5008859;28;20309;-68
2023/02/03 07:40:37;;;;;;;;;;;;;;;8.69;100.00;102333.31;5010288;28;19979;-68
2023/02/03 07:43:04;;;;;;;;;;;;;;;8.67;100.00;102332.56;5017977;28;19968;-69
2023/02/03 07:45:31;;;;;;;;;;;;;;;8.70;100.00;102340.22;5018753;28;19979;-68
2023/02/03 07:47:57;;;;;;;;;;;;;;;8.66;100.00;102352.66;5024087;28;19983;-69
2023/02/03 07:50:23;;;;;;;;;;;;;;;8.65;100.00;102352.75;5021934;28;19991;-69
2023/02/03 07:52:51;;;;;;;;;;;;;;;8.63;100.00;102352.00;5008069;28;20333;-69
2023/02/03 07:55:18;;;;;;;;;;;;;;;8.65;100.00;102343.13;5012837;28;20437;-69
2023/02/03 07:57:44;;;;;;;;;;;;;;;8.64;100.00;102346.66;5008147;28;20329;-68
2023/02/03 08:00:11;;;;;;;;;;;;;;;8.67;100.00;102356.13;5024938;28;20209;-69
2023/02/03 08:02:38;;;;;;;;;;;;;;;8.69;100.00;102356.84;5004588;28;19929;-69
2023/02/03 08:05:08;;;;;;;;;;;;;;;8.71;100.00;102381.97;4993952;28;19964;-68
2023/02/03 08:07:34;;;;;;;;;;;;;;;8.74;100.00;102364.41;4900339;28;2266381;-69
2023/02/03 08:10:01;;;;;;;;;;;;;;;8.75;100.00;102369.53;5015808;28;20406;-69
2023/02/03 08:12:29;;;;;;;;;;;;;;;8.76;100.00;102373.84;5023380;28;19929;-70
2023/02/03 08:14:58;;;;;;;;;;;;;;;8.74;100.00;102373.09;5011195;28;20612;-70
2023/02/03 08:17:24;;;;;;;;;;;;;;;8.75;100.00;102377.41;5022827;28;19925;-70
2023/02/03 08:19:51;;;;;;;;;;;;;;;8.73;100.00;102378.44;4989248;28;19933;-69
2023/02/03 08:22:18;;;;;;;;;;;;;;;8.80;100.00;102383.19;5014474;28;19936;-70
2023/02/03 08:24:45;;;;;;;;;;;;;;;8.77;100.00;102412.16;5013237;28;19943;-70
2023/02/03 08:27:15;;;;;;;;;;;;;;;8.82;100.00;102399.63;5016431;28;20557;-70
2023/02/03 08:29:44;;;;;;;;;;;;;;;8.83;100.00;102390.81;5006745;28;19933;-70
2023/02/03 08:32:24;;;;;;;;;;;;;;;8.85;100.00;102390.75;4999299;28;20010;-69
2023/02/03 08:34:51;;;;;;;;;;;;;;;8.87;100.00;102399.34;5014560;28;19937;-69
2023/02/03 08:37:19;;;;;;;;;;;;;;;8.87;100.00;102394.09;5015105;28;19925;-70
2023/02/03 08:39:49;;;;;;;;;;;;;;;8.82;100.00;102385.69;5017548;28;19964;-70
2023/02/03 08:42:16;;;;;;;;;;;;;;;8.82;100.00;102378.69;5016951;28;19960;-70
2023/02/03 08:44:43;;;;;;;;;;;;;;;8.87;100.00;102392.31;5014099;28;20003;-70
2023/02/03 08:47:09;;;;;;;;;;;;;;;8.90;100.00;102394.75;5001302;28;19929;-71
2023/02/03 08:49:41;;;;;;;;;;;;;;;8.96;100.00;102400.50;5003307;28;20490;-71
2023/02/03 08:52:11;;;;;;;;;;;;;;;8.95;100.00;102404.91;4993695;28;19925;-70
2023/02/03 08:54:37;;;;;;;;;;;;;;;8.93;100.00;102393.72;5015214;28;20031;-70
2023/02/03 08:57:07;;;;;;;;;;;;;;;8.96;100.00;102398.75;5016437;28;19929;-70
2023/02/03 08:59:37;;;;;;;;;;;;;;;8.97;100.00;102400.44;5014725;28;19973;-71
2023/02/03 09:02:04;;;;;;;;;;;;;;;9.02;100.00;102405.38;5014329;28;20414;-70
2023/02/03 09:04:32;;;;;;;;;;;;;;;9.00;100.00;102394.19;5021387;28;20129;-69
2023/02/03 09:07:03;;;;;;;;;;;;;;;9.03;100.00;102405.25;5004345;28;19972;-69
2023/02/03 09:09:29;;;;;;;;;;;;;;;9.07;100.00;102409.38;5012004;28;19940;-69
2023/02/03 09:12:00;;;;;;;;;;;;;;;9.08;100.00;102405.00;5014654;28;19929;-70
2023/02/03 09:14:28;;;;;;;;;;;;;;;9.10;100.00;102409.19;5020189;28;20319;-70
2023/02/03 09:16:54;;;;;;;;;;;;;;;9.13;100.00;102413.38;4998223;28;20393;-70
2023/02/03 09:19:21;;;;;;;;;;;;;;;9.15;100.00;102410.66;5021886;28;20382;-70
2023/02/03 09:21:48;;;;;;;;;;;;;;;9.15;100.00;102403.66;5012857;28;20547;-70
2023/02/03 09:24:14;;;;;;;;;;;;;;;9.18;100.00;102408.69;5016762;28;19925;-70
2023/02/03 09:26:41;;;;;;;;;;;;;;;9.20;100.00;102409.44;4994754;28;19933;-70
2023/02/03 09:29:07;;;;;;;;;;;;;;;9.19;100.00;102407.78;5001237;28;19926;-70
2023/02/03 09:31:34;;;;;;;;;;;;;;;9.24;100.00;102412.69;5019831;28;20314;-70
2023/02/03 09:34:00;;;;;;;;;;;;;;;9.24;100.00;102410.09;5013169;28;19987;-70
2023/02/03 09:36:26;;;;;;;;;;;;;;;9.27;100.00;102412.50;5015309;28;19976;-70
2023/02/03 09:38:53;;;;;;;;;;;;;;;9.27;100.00;102415.09;5022993;28;19929;-68
2023/02/03 09:41:22;;;;;;;;;;;;;;;9.32;100.00;102420.91;5012603;28;19929;-70
2023/02/03 09:43:55;;;;;;;;;;;;;;;9.37;100.00;102426.69;5014041;28;20461;-70
2023/02/03 09:46:31;;;;;;;;;;;;;;;9.37;100.00;102417.97;5013668;28;19924;-70
2023/02/03 09:48:57;;;;;;;;;;;;;;;9.39;100.00;102418.72;5018232;28;20016;-69
2023/02/03 09:51:27;;;;;;;;;;;;;;;9.39;100.00;102426.56;5010407;28;19932;-70
2023/02/03 09:53:58;;;;;;;;;;;;;;;9.38;100.00;102417.03;5016460;28;19925;-70
2023/02/03 09:56:35;;;;;;;;;;;;;;;9.40;100.00;102431.72;5003557;28;19936;-69
2023/02/03 09:59:02;;;;;;;;;;;;;;;9.39;100.00;102443.16;5016741;28;19925;-70
2023/02/03 10:01:33;;;;;;;;;;;;;;;9.47;100.00;102438.25;5025341;28;19983;-70
2023/02/03 10:04:04;;;;;;;;;;;;;;;9.46;100.00;102441.78;5015577;28;19925;-69
2023/02/03 10:06:39;;;;;;;;;;;;;;;9.48;100.00;102437.28;5020984;28;20519;-70
2023/02/03 10:09:28;;;;;;;;;;;;;;;9.55;100.00;102440.38;5017972;28;19933;-70
2023/02/03 10:12:06;;;;;;;;;;;;;;;9.51;100.00;102438.88;5015202;28;19925;-69
2023/02/03 10:14:41;;;;;;;;;;;;;;;9.52;100.00;102437.09;5015827;28;19933;-70
2023/02/03 10:17:19;;;;;;;;;;;;;;;9.53;100.00;102437.00;5022841;28;19925;-70
2023/02/03 10:20:04;;;;;;;;;;;;;;;9.57;100.00;102438.50;5007736;28;19935;-70
2023/02/03 10:22:33;;;;;;;;;;;;;;;9.57;100.00;102441.09;5016477;28;19933;-68
2023/02/03 10:25:03;;;;;;;;;;;;;;;9.55;100.00;102431.69;5009301;28;19951;-69
2023/02/03 10:27:30;;;;;;;;;;;;;;;9.52;100.00;102432.69;5020144;28;19929;-69
2023/02/03 10:30:03;;;;;;;;;;;;;;;9.58;100.00;102441.94;5022640;28;19925;-69
2023/02/03 10:32:29;;;;;;;;;;;;;;;9.61;100.00;102439.13;5014386;28;19935;-69
2023/02/03 10:34:56;;;;;;;;;;;;;;;9.58;100.00;102429.66;5022840;28;19976;-69
2023/02/03 10:37:28;;;;;;;;;;;;;;;9.61;100.00;102442.59;5010800;28;19925;-69
2023/02/03 10:39:56;;;;;;;;;;;;;;;9.63;100.00;102455.59;5017571;28;19965;-69
2023/02/03 10:42:22;;;;;;;;;;;;;;;9.63;100.00;102456.41;4995487;28;19928;-69
2023/02/03 10:44:55;;;;;;;;;;;;;;;9.68;100.00;102450.88;5017051;28;19929;-69
2023/02/03 10:47:36;;;;;;;;;;;;;;;9.67;100.00;102451.81;5014922;28;19929;-70
2023/02/03 10:50:13;;;;;;;;;;;;;;;9.70;100.00;102465.56;5004352;28;19941;-70
2023/02/03 10:52:39;;;;;;;;;;;;;;;9.73;100.00;102458.44;5016900;28;19929;-70
2023/02/03 10:55:26;;;;;;;;;;;;;;;9.73;100.00;102461.91;5015914;28;19952;-70
2023/02/03 10:57:53;;;;;;;;;;;;;;;9.71;100.00;102466.41;5023782;28;20036;-70
2023/02/03 11:00:20;;;;;;;;;;;;;;;9.69;100.00;102463.88;5008263;28;19925;-70
2023/02/03 11:02:55;;;;;;;;;;;;;;;9.72;100.00;102467.25;5025925;28;19929;-71
2023/02/03 11:05:24;;;;;;;;;;;;;;;9.78;100.00;102464.22;5009409;28;20373;-69
2023/02/03 11:07:51;;;;;;;;;;;;;;;9.79;100.00;102461.50;5023009;28;19960;-69
2023/02/03 11:10:23;;;;;;;;;;;;;;;9.78;100.00;102458.97;5027913;28;19936;-70
2023/02/03 11:12:50;;;;;;;;;;;;;;;9.80;100.00;102470.19;5017991;28;19925;-70
2023/02/03 11:15:16;;;;;;;;;;;;;;;9.84;100.00;102472.53;5025627;28;19933;-70
2023/02/03 11:17:43;;;;;;;;;;;;;;;9.85;100.00;102468.94;5000394;28;20344;-70
2023/02/03 11:20:16;;;;;;;;;;;;;;;9.88;100.00;102460.06;5018641;28;20210;-70
2023/02/03 11:22:43;;;;;;;;;;;;;;;9.91;100.00;102480.81;5017657;28;20456;-69
2023/02/03 11:25:17;;;;;;;;;;;;;;;9.97;100.00;102474.31;5022726;28;19929;-68
2023/02/03 11:27:44;;;;;;;;;;;;;;;9.94;100.00;102471.91;5019625;28;19928;-70
2023/02/03 11:30:23;;;;;;;;;;;;;;;9.98;100.00;102476.03;5010398;28;19925;-70
2023/02/03 11:32:50;;;;;;;;;;;;;;;10.01;100.00;102491.53;5014299;28;20012;-69
2023/02/03 11:35:19;;;;;;;;;;;;;;;10.03;100.00;102474.75;5007792;28;19929;-70
2023/02/03 11:37:50;;;;;;;;;;;;;;;10.07;100.00;102465.75;5025164;28;20600;-69
2023/02/03 11:40:19;;;;;;;;;;;;;;;10.14;100.00;102473.22;5019992;28;20193;-69
2023/02/03 11:42:48;;;;;;;;;;;;;;;10.13;100.00;102467.09;5022323;28;20008;-69
2023/02/03 11:45:23;;;;;;;;;;;;;;;10.17;100.00;102462.50;5016455;28;20012;-70
2023/02/03 11:47:53;;;;;;;;;;;;;;;10.17;100.00;102473.81;5015608;28;20610;-69
2023/02/03 11:50:19;;;;;;;;;;;;;;;10.20;100.00;102475.41;5013786;28;19929;-69
2023/02/03 11:52:51;;;;;;;;;;;;;;;10.26;100.00;102473.22;5017376;28;19932;-69
2023/02/03 11:55:17;;;;;;;;;;;;;;;10.28;100.00;102478.34;5020611;28;19929;-69
2023/02/03 11:57:49;;;;;;;;;;;;;;;10.28;100.00;102476.56;5018417;28;19929;-69
2023/02/03 12:00:16;;;;;;;;;;;;;;;10.36;100.00;102478.69;5019693;28;19925;-69
2023/02/03 12:03:01;;;;;;;;;;;;;;;10.38;100.00;102474.19;5008466;28;19976;-70
2023/02/03 12:05:27;;;;;;;;;;;;;;;10.38;100.00;102470.72;5022669;28;19995;-69
2023/02/03 12:08:02;;;;;;;;;;;;;;;10.43;100.00;102458.97;5018356;28;19933;-69
2023/02/03 12:10:38;;;;;;;;;;;;;;;10.51;100.00;102487.31;5019658;28;19929;-68
2023/02/03 12:13:23;;;;;;;;;;;;;;;10.49;100.00;102481.34;5020801;28;20456;-69
2023/02/03 12:16:08;;;;;;;;;;;;;;;10.49;100.00;102487.41;5013880;28;19959;-69
2023/02/03 12:18:38;;;;;;;;;;;;;;;10.51;100.00;102502.22;5022958;28;19979;-68
2023/02/03 12:21:04;;;;;;;;;;;;;;;10.50;100.00;102506.63;5016783;28;19925;-68
2023/02/03 12:23:42;;;;;;;;;;;;;;;10.50;100.00;102501.38;5022680;28;19932;-68
2023/02/03 12:26:20;;;;;;;;;;;;;;;10.51;100.00;102523.22;4996419;28;19933;-67
2023/02/03 12:28:47;;;;;;;;;;;;;;;10.51;100.00;102516.19;5017578;28;19944;-68
2023/02/03 12:31:28;;;;;;;;;;;;;;;10.51;100.00;102515.34;4993747;28;20574;-68
2023/02/03 12:34:08;;;;;;;;;;;;;;;10.48;100.00;102517.22;5022547;28;19929;-68
2023/02/03 12:36:41;;;;;;;;;;;;;;;10.41;100.00;102513.34;5022059;28;19925;-68
2023/02/03 12:39:16;;;;;;;;;;;;;;;10.34;100.00;102514.69;5006154;28;19951;-68
2023/02/03 12:41:46;;;;;;;;;;;;;;;10.32;100.00;102513.94;5019954;28;19925;-68
2023/02/03 12:44:25;;;;;;;;;;;;;;;10.24;100.00;102522.31;5001847;28;19932;-69
2023/02/03 12:46:59;;;;;;;;;;;;;;;10.19;100.00;102539.28;5024185;28;20104;-69